Time;durP1;ratioP1;P1;durP2;ratioP2;P2;SDS_P1;SDS_P2;PMS_P1;PMS_P2;Temp;Humidity;BMP_temperature;BMP_pressure;BME280_temperature;BME280_humidity;BME280_pressure;Samples;Min_cycle;Max_cycle;Signal;HPM_P1;HPM_P2
2022/12/20 00:02:02;;;;;;;1999.90;999.90;;;;;;;1.66;100.00;94879.50;5070548;28;20179;-65
2022/12/20 00:04:27;;;;;;;1999.90;999.90;;;;;;;1.61;100.00;94882.50;5070446;28;20192;-65
2022/12/20 00:06:53;;;;;;;1999.90;999.90;;;;;;;1.61;100.00;94877.09;5053606;28;20199;-65
2022/12/20 00:09:18;;;;;;;1999.90;999.90;;;;;;;1.65;100.00;94872.56;5070458;28;20176;-65
2022/12/20 00:11:43;;;;;;;1999.90;999.90;;;;;;;1.67;100.00;94870.28;5052809;28;20169;-64
2022/12/20 00:14:09;;;;;;;1999.90;999.90;;;;;;;1.75;100.00;94866.56;5070957;28;20171;-65
2022/12/20 00:16:36;;;;;;;1999.90;999.90;;;;;;;1.79;100.00;94866.63;5070095;28;20641;-64
2022/12/20 00:19:04;;;;;;;1999.90;999.90;;;;;;;1.79;100.00;94878.16;5053695;28;20177;-60
2022/12/20 00:21:31;;;;;;;1999.90;999.90;;;;;;;1.82;100.00;94872.06;5054264;28;20232;-68
2022/12/20 00:23:57;;;;;;;1999.90;999.90;;;;;;;1.84;100.00;94872.47;5054862;28;20175;-67
2022/12/20 00:26:26;;;;;;;1999.90;999.90;;;;;;;1.90;100.00;94868.34;5070233;28;20571;-68
2022/12/20 00:28:52;;;;;;;1999.90;999.90;;;;;;;1.89;100.00;94866.03;5053119;28;20184;-68
2022/12/20 00:31:20;;;;;;;1999.90;999.90;;;;;;;1.78;100.00;94857.00;5070124;28;20180;-68
2022/12/20 00:33:48;;;;;;;1999.90;999.90;;;;;;;1.80;100.00;94852.81;5053859;28;20258;-68
2022/12/20 00:36:15;;;;;;;1999.90;999.90;;;;;;;1.78;100.00;94852.38;5070625;28;20189;-60
2022/12/20 00:38:43;;;;;;;1999.90;999.90;;;;;;;1.78;100.00;94848.94;5053371;28;20181;-63
2022/12/20 00:41:12;;;;;;;1999.90;999.90;;;;;;;1.81;100.00;94854.38;5070093;28;20183;-68
2022/12/20 00:43:38;;;;;;;1999.90;999.90;;;;;;;1.81;100.00;94856.25;5053523;28;20178;-67
2022/12/20 00:46:04;;;;;;;1999.90;999.90;;;;;;;1.80;100.00;94852.03;5070226;28;20184;-68
2022/12/20 00:48:30;;;;;;;1999.90;999.90;;;;;;;1.77;100.00;94841.97;5070421;28;20194;-69
2022/12/20 00:51:00;;;;;;;1999.90;999.90;;;;;;;1.80;100.00;94842.06;5053188;28;20274;-67
2022/12/20 00:53:26;;;;;;;1999.90;999.90;;;;;;;1.81;100.00;94848.97;5053136;28;20316;-67
2022/12/20 00:55:52;;;;;;;1999.90;999.90;;;;;;;1.83;100.00;94841.34;5070222;28;20181;-68
2022/12/20 00:58:17;;;;;;;1999.90;999.90;;;;;;;1.83;100.00;94852.09;5070016;28;20188;-63
2022/12/20 01:00:42;;;;;;;1999.90;999.90;;;;;;;1.88;100.00;94849.09;5069957;28;20254;-63
2022/12/20 01:03:08;;;;;;;1999.90;999.90;;;;;;;1.92;100.00;94857.22;5069896;28;20322;-63
2022/12/20 01:05:34;;;;;;;1999.90;999.90;;;;;;;1.98;100.00;94842.31;5069832;28;20205;-62
2022/12/20 01:07:59;;;;;;;1999.90;999.90;;;;;;;2.05;100.00;94863.97;5070229;28;20213;-63
2022/12/20 01:10:25;;;;;;;1999.90;999.90;;;;;;;2.05;100.00;94853.19;5053234;28;20184;-62
2022/12/20 01:12:50;;;;;;;1999.90;999.90;;;;;;;2.02;100.00;94854.69;5069608;28;20177;-66
2022/12/20 01:15:16;;;;;;;1999.90;999.90;;;;;;;2.04;100.00;94852.41;5070569;28;20182;-65
2022/12/20 01:17:41;;;;;;;1999.90;999.90;;;;;;;2.06;100.00;94855.53;5070130;28;20192;-66
2022/12/20 01:20:07;;;;;;;1999.90;999.90;;;;;;;2.10;100.00;94859.03;5070336;28;20219;-66
2022/12/20 01:22:33;;;;;;;1999.90;999.90;;;;;;;2.09;100.00;94848.63;5071612;28;20247;-66
2022/12/20 01:24:58;;;;;;;1999.90;999.90;;;;;;;2.10;100.00;94850.97;5056664;28;20191;-67
2022/12/20 01:27:24;;;;;;;1999.90;999.90;;;;;;;2.08;100.00;94866.69;5056695;28;20230;-66
2022/12/20 01:29:49;;;;;;;1999.90;999.90;;;;;;;2.12;100.00;94859.44;5073241;28;20213;-66
2022/12/20 01:32:14;;;;;;;1999.90;999.90;;;;;;;2.11;100.00;94841.75;5056476;28;20185;-63
2022/12/20 01:34:40;;;;;;;1999.90;999.90;;;;;;;2.17;100.00;94845.69;5073233;28;20541;-63
2022/12/20 01:37:05;;;;;;;1999.90;999.90;;;;;;;2.14;100.00;94841.03;5073041;28;20175;-63
2022/12/20 01:39:30;;;;;;;1999.90;999.90;;;;;;;2.15;100.00;94845.25;5073337;28;20253;-64
2022/12/20 01:41:56;;;;;;;1999.90;999.90;;;;;;;2.16;100.00;94843.34;5072984;28;20172;-63
2022/12/20 01:44:21;;;;;;;1999.90;999.90;;;;;;;2.17;100.00;94845.69;5072727;28;20262;-63
2022/12/20 01:46:48;;;;;;;1999.90;999.90;;;;;;;2.21;100.00;94843.81;5072879;28;20229;-63
2022/12/20 01:49:16;;;;;;;1999.90;999.90;;;;;;;2.24;100.00;94845.78;5073069;28;20216;-68
2022/12/20 01:52:08;;;;;;;1999.90;999.90;;;;;;;2.24;100.00;94853.88;5072752;28;20200;-68
2022/12/20 01:54:41;;;;;;;1999.90;999.90;;;;;;;2.23;100.00;94857.69;5055103;28;20222;-63
2022/12/20 01:57:51;;;;;;;1999.90;999.90;;;;;;;2.21;100.00;94859.97;5056285;28;20523;-63
2022/12/20 02:00:17;;;;;;;1999.90;999.90;;;;;;;2.25;100.00;94863.50;5054057;28;20675;-63
2022/12/20 02:02:44;;;;;;;1999.90;999.90;;;;;;;2.24;100.00;94867.34;5055926;28;20175;-63
2022/12/20 02:05:10;;;;;;;1999.90;999.90;;;;;;;2.24;100.00;94866.53;5072631;28;20207;-63
2022/12/20 02:07:37;;;;;;;1999.90;999.90;;;;;;;2.19;100.00;94878.41;5072977;28;20202;-67
2022/12/20 02:10:05;;;;;;;1999.90;999.90;;;;;;;2.19;100.00;94875.69;5073046;28;20191;-63
2022/12/20 02:12:40;;;;;;;1999.90;999.90;;;;;;;2.16;100.00;94881.84;5055526;28;20181;-62
2022/12/20 02:15:21;;;;;;;1999.90;999.90;;;;;;;2.15;100.00;94874.88;5072464;28;20209;-61
2022/12/20 02:18:15;;;;;;;1999.90;999.90;;;;;;;2.18;100.00;94879.53;5073174;28;20174;-60
2022/12/20 02:20:56;;;;;;;1999.90;999.90;;;;;;;2.21;100.00;94884.22;5073038;28;20180;-61
2022/12/20 02:23:44;;;;;;;1999.90;999.90;;;;;;;2.23;100.00;94876.53;5072938;28;20180;-61
2022/12/20 02:26:47;;;;;;;1999.90;999.90;;;;;;;2.25;100.00;94878.88;5056312;28;20182;-62
2022/12/20 02:29:38;;;;;;;1999.90;999.90;;;;;;;2.26;100.00;94880.44;5072846;28;20208;-63
2022/12/20 02:32:13;;;;;;;1999.90;999.90;;;;;;;2.30;100.00;94871.25;5072122;28;20694;-61
2022/12/20 02:34:40;;;;;;;1999.90;999.90;;;;;;;2.30;100.00;94887.41;5055186;28;20206;-61
2022/12/20 02:37:05;;;;;;;1999.90;999.90;;;;;;;2.29;100.00;94891.25;5072004;28;20223;-62
2022/12/20 02:39:32;;;;;;;1999.90;999.90;;;;;;;2.30;100.00;94892.78;5072463;28;20169;-64
2022/12/20 02:42:06;;;;;;;1999.90;999.90;;;;;;;2.31;100.00;94899.75;5055238;28;20220;-62
2022/12/20 02:47:28;;;;;;;1999.90;999.90;;;;;;;2.28;100.00;94897.00;5056470;28;20259;-63
2022/12/20 02:49:55;;;;;;;1999.90;999.90;;;;;;;2.31;100.00;94905.13;5072238;28;20536;-65
2022/12/20 02:52:25;;;;;;;1999.90;999.90;;;;;;;2.32;100.00;94895.91;5072130;28;20201;-65
2022/12/20 02:54:52;;;;;;;1999.90;999.90;;;;;;;2.34;100.00;94896.31;5055895;28;20271;-65
2022/12/20 02:57:24;;;;;;;1999.90;999.90;;;;;;;2.34;100.00;94887.47;5054717;28;20225;-66
2022/12/20 03:00:01;;;;;;;1999.90;999.90;;;;;;;2.32;100.00;94895.91;5071981;28;20169;-65
2022/12/20 03:02:28;;;;;;;1999.90;999.90;;;;;;;2.32;100.00;94893.22;5071829;28;20542;-65
2022/12/20 03:04:54;;;;;;;1999.90;999.90;;;;;;;2.31;100.00;94896.28;5054431;28;20197;-64
2022/12/20 03:07:19;;;;;;;1999.90;999.90;;;;;;;2.33;100.00;94892.06;5070997;28;20293;-62
2022/12/20 03:09:45;;;;;;;1999.90;999.90;;;;;;;2.34;100.00;94887.47;5071325;28;20194;-61
2022/12/20 03:12:12;;;;;;;1999.90;999.90;;;;;;;2.34;100.00;94884.78;5071222;28;20185;-61
2022/12/20 03:14:38;;;;;;;1999.90;999.90;;;;;;;2.37;100.00;94884.81;5054220;28;20176;-62
2022/12/20 03:17:04;;;;;;;1999.90;999.90;;;;;;;2.34;100.00;94896.31;5054873;28;20232;-61
2022/12/20 03:19:29;;;;;;;1999.90;999.90;;;;;;;2.37;100.00;94903.69;5071016;28;20174;-61
2022/12/20 03:21:55;;;;;;;1999.90;999.90;;;;;;;2.35;100.00;94922.13;5055008;28;20179;-67
2022/12/20 03:24:20;;;;;;;1999.90;999.90;;;;;;;2.25;100.00;94928.13;5070973;28;20627;-64
2022/12/20 03:26:46;;;;;;;1999.90;999.90;;;;;;;2.23;100.00;94913.47;5071553;28;20222;-67
2022/12/20 03:29:11;;;;;;;1999.90;999.90;;;;;;;2.27;100.00;94920.47;5070810;28;20186;-67
2022/12/20 03:31:37;;;;;;;1999.90;999.90;;;;;;;2.22;100.00;94922.69;5071420;28;20204;-67
2022/12/20 03:34:03;;;;;;;1999.90;999.90;;;;;;;2.18;100.00;94909.16;5070917;28;20170;-67
2022/12/20 03:36:29;;;;;;;1999.90;999.90;;;;;;;2.15;100.00;94906.44;5054786;28;20186;-67
2022/12/20 03:38:55;;;;;;;1999.90;999.90;;;;;;;2.16;100.00;94898.00;5070921;28;20256;-67
2022/12/20 03:41:21;;;;;;;1999.90;999.90;;;;;;;2.23;100.00;94892.69;5054343;28;20176;-65
2022/12/20 03:43:47;;;;;;;1999.90;999.90;;;;;;;2.24;100.00;94880.81;5070888;28;20240;-62
2022/12/20 03:46:13;;;;;;;1999.90;999.90;;;;;;;2.29;100.00;94879.69;5054572;28;20186;-63
2022/12/20 03:48:38;;;;;;;1999.90;999.90;;;;;;;2.26;100.00;94865.03;5070900;28;20267;-62
2022/12/20 03:51:04;;;;;;;1999.90;999.90;;;;;;;2.24;100.00;94883.50;5070676;28;20222;-63
2022/12/20 03:53:30;;;;;;;1999.90;999.90;;;;;;;2.29;100.00;94869.69;5070939;28;20268;-63
2022/12/20 03:55:55;;;;;;;1999.90;999.90;;;;;;;2.18;100.00;94874.16;5070375;28;20261;-63
2022/12/20 03:58:21;;;;;;;1999.90;999.90;;;;;;;2.11;100.00;94874.06;5053949;28;20174;-66
2022/12/20 04:00:46;;;;;;;1999.90;999.90;;;;;;;2.14;100.00;94884.09;5071126;28;20174;-68
2022/12/20 04:03:12;;;;;;;1999.90;999.90;;;;;;;2.15;100.00;94874.13;5070669;28;20177;-62
2022/12/20 04:05:37;;;;;;;1999.90;999.90;;;;;;;2.16;100.00;94871.06;5070409;28;20199;-62
2022/12/20 04:08:03;;;;;;;1999.90;999.90;;;;;;;2.16;100.00;94865.69;5053744;28;20261;-62
2022/12/20 04:10:28;;;;;;;1999.90;999.90;;;;;;;2.19;100.00;94870.31;5070383;28;20186;-62
2022/12/20 04:12:53;;;;;;;1999.90;999.90;;;;;;;2.24;100.00;94882.69;5070469;28;20183;-61
2022/12/20 04:15:19;;;;;;;1999.90;999.90;;;;;;;2.27;100.00;94876.59;5070387;28;20176;-61
2022/12/20 04:17:44;;;;;;;1999.90;999.90;;;;;;;2.28;100.00;94873.53;5070423;28;20187;-63
2022/12/20 04:20:19;;;;;;;1999.90;999.90;;;;;;;2.29;100.00;94875.09;5070320;28;20545;-64
2022/12/20 04:22:50;;;;;;;1999.90;999.90;;;;;;;2.29;100.00;94867.00;5070842;28;20245;-64
2022/12/20 04:25:17;;;;;;;1999.90;999.90;;;;;;;2.38;100.00;94862.16;5070316;28;20174;-63
2022/12/20 04:27:43;;;;;;;1999.90;999.90;;;;;;;2.42;100.00;94854.09;5053402;28;20197;-65
2022/12/20 04:30:09;;;;;;;1999.90;999.90;;;;;;;2.45;100.00;94851.44;5070364;28;20268;-65
2022/12/20 04:32:35;;;;;;;1999.90;999.90;;;;;;;2.46;100.00;94844.94;5070099;28;20566;-65
2022/12/20 04:35:00;;;;;;;1999.90;999.90;;;;;;;2.44;100.00;94847.22;5070219;28;20232;-66
2022/12/20 04:37:26;;;;;;;1999.90;999.90;;;;;;;2.46;100.00;94850.31;5070907;28;20180;-65
2022/12/20 04:39:52;;;;;;;1999.90;999.90;;;;;;;2.46;100.00;94850.31;5069735;28;20195;-64
2022/12/20 04:42:17;;;;;;;1999.90;999.90;;;;;;;2.47;100.00;94849.19;5053417;28;20173;-65
2022/12/20 04:44:42;;;;;;;1999.90;999.90;;;;;;;2.48;100.00;94849.97;5070564;28;20170;-65
2022/12/20 04:47:09;;;;;;;1999.90;999.90;;;;;;;2.47;100.00;94848.38;5069943;28;20216;-64
2022/12/20 04:49:34;;;;;;;1999.90;999.90;;;;;;;2.45;100.00;94851.44;5070151;28;20261;-67
2022/12/20 04:53:46;;;;;;;1999.90;999.90;;;;;;;2.43;100.00;94848.34;5070662;28;20704;-64
2022/12/20 04:54:45;;;;;;;1999.90;999.90;;;;;;;2.42;100.00;94849.50;5054556;28;20181;-67
2022/12/20 04:57:10;;;;;;;1999.90;999.90;;;;;;;2.42;100.00;94846.81;5070928;28;20271;-63
2022/12/20 04:59:36;;;;;;;1999.90;999.90;;;;;;;2.42;100.00;94851.41;5073871;28;20174;-63
2022/12/20 05:02:01;;;;;;;1999.90;999.90;;;;;;;2.40;100.00;94849.06;5073907;28;20184;-61
2022/12/20 05:04:26;;;;;;;1999.90;999.90;;;;;;;2.38;100.00;94837.91;5073791;28;20194;-64
2022/12/20 05:06:52;;;;;;;1999.90;999.90;;;;;;;2.40;100.00;94834.81;5073694;28;20208;-65
2022/12/20 05:09:17;;;;;;;1999.90;999.90;;;;;;;2.40;100.00;94837.50;5073896;28;20253;-64
2022/12/20 05:11:43;;;;;;;1999.90;999.90;;;;;;;2.35;100.00;94827.84;5057114;28;20170;-67
2022/12/20 05:14:08;;;;;;;1999.90;999.90;;;;;;;2.29;100.00;94832.00;5074234;28;20519;-66
2022/12/20 05:16:33;;;;;;;1999.90;999.90;;;;;;;2.32;100.00;94825.88;5073518;28;20178;-66
2022/12/20 05:18:59;;;;;;;1999.90;999.90;;;;;;;2.36;100.00;94834.78;5073478;28;20261;-65
2022/12/20 05:26:52;;;;;;;1999.90;999.90;;;;;;;2.45;100.00;94818.34;5057855;28;20200;-65
2022/12/20 05:29:18;;;;;;;1999.90;999.90;;;;;;;2.45;100.00;94819.13;5073402;28;20182;-65
2022/12/20 05:31:43;;;;;;;1999.90;999.90;;;;;;;2.50;100.00;94818.81;5073561;28;20511;-68
2022/12/20 05:34:08;;;;;;;1999.90;999.90;;;;;;;2.54;100.00;94826.94;5056630;28;20170;-67
2022/12/20 05:36:34;;;;;;;1999.90;999.90;;;;;;;2.53;100.00;94823.47;5056490;28;20187;-68
2022/12/20 05:38:59;;;;;;;1999.90;999.90;;;;;;;2.56;100.00;94824.66;5073110;28;20180;-66
2022/12/20 05:41:25;;;;;;;1999.90;999.90;;;;;;;2.58;100.00;94839.31;5056581;28;20176;-66
2022/12/20 05:43:50;;;;;;;1999.90;999.90;;;;;;;2.56;100.00;94825.44;5073120;28;20196;-65
2022/12/20 05:46:16;;;;;;;1999.90;999.90;;;;;;;2.60;100.00;94826.25;5073372;28;20211;-65
2022/12/20 05:48:41;;;;;;;1999.90;999.90;;;;;;;2.60;100.00;94820.88;5056687;28;20234;-65
2022/12/20 05:51:06;;;;;;;1999.90;999.90;;;;;;;2.59;100.00;94824.69;5056382;28;20180;-63
2022/12/20 05:53:32;;;;;;;1999.90;999.90;;;;;;;2.67;100.00;94830.94;5055916;28;20222;-66
2022/12/20 05:55:58;;;;;;;1999.90;999.90;;;;;;;2.65;100.00;94823.22;5072771;28;20179;-64
2022/12/20 05:58:23;;;;;;;1999.90;999.90;;;;;;;2.70;100.00;94825.59;5073294;28;20182;-65
2022/12/20 06:00:49;;;;;;;1999.90;999.90;;;;;;;2.70;100.00;94824.84;5072421;28;20205;-66
2022/12/20 06:03:14;;;;;;;1999.90;999.90;;;;;;;2.69;100.00;94825.97;5055981;28;20182;-65
2022/12/20 06:05:41;;;;;;;1999.90;999.90;;;;;;;2.73;100.00;94841.03;5055769;28;20237;-67
2022/12/20 06:08:07;;;;;;;1999.90;999.90;;;;;;;2.77;100.00;94847.25;5072775;28;20635;-66
2022/12/20 06:10:33;;;;;;;1999.90;999.90;;;;;;;2.76;100.00;94855.69;5071857;28;20227;-64
2022/12/20 06:12:59;;;;;;;1999.90;999.90;;;;;;;2.77;100.00;94858.03;5072554;28;20189;-64
2022/12/20 06:15:25;;;;;;;1999.90;999.90;;;;;;;2.73;100.00;94862.59;5056268;28;20175;-65
2022/12/20 06:17:50;;;;;;;1999.90;999.90;;;;;;;2.74;100.00;94863.38;5072431;28;20178;-65
2022/12/20 06:20:15;;;;;;;1999.90;999.90;;;;;;;2.75;100.00;94876.50;5072396;28;20174;-65
2022/12/20 06:22:41;;;;;;;1999.90;999.90;;;;;;;2.73;100.00;94881.47;5072425;28;20170;-67
2022/12/20 06:25:08;;;;;;;1999.90;999.90;;;;;;;2.73;100.00;94881.47;5072412;28;20166;-66
2022/12/20 06:27:34;;;;;;;1999.90;999.90;;;;;;;2.75;100.00;94881.88;5071945;28;20198;-64
2022/12/20 06:29:59;;;;;;;1999.90;999.90;;;;;;;2.75;100.00;94886.50;5072611;28;20188;-67
2022/12/20 06:32:24;;;;;;;1999.90;999.90;;;;;;;2.74;100.00;94880.31;5072356;28;20186;-68
2022/12/20 06:34:50;;;;;;;1999.90;999.90;;;;;;;2.75;100.00;94883.78;5071539;28;20277;-67
2022/12/20 06:37:15;;;;;;;1999.90;999.90;;;;;;;2.74;100.00;94883.00;5071667;28;20228;-67
2022/12/20 06:39:41;;;;;;;1999.90;999.90;;;;;;;2.77;100.00;94884.22;5071850;28;20170;-67
2022/12/20 06:42:06;;;;;;;1999.90;999.90;;;;;;;2.80;100.00;94888.84;5055267;28;20175;-67
2022/12/20 06:44:31;;;;;;;1999.90;999.90;;;;;;;2.85;100.00;94897.41;5072478;28;20200;-63
2022/12/20 06:46:57;;;;;;;1999.90;999.90;;;;;;;2.88;100.00;94890.53;5071382;28;20198;-66
2022/12/20 06:49:22;;;;;;;1999.90;999.90;;;;;;;2.89;100.00;94900.94;5072257;28;20247;-64
2022/12/20 06:51:48;;;;;;;1999.90;999.90;;;;;;;2.85;100.00;94902.03;5072280;28;20172;-65
2022/12/20 06:54:13;;;;;;;1999.90;999.90;;;;;;;2.85;100.00;94902.03;5071348;28;20287;-65
2022/12/20 06:56:38;;;;;;;1999.90;999.90;;;;;;;2.85;100.00;94896.66;5071638;28;20555;-65
2022/12/20 06:59:04;;;;;;;1999.90;999.90;;;;;;;2.85;100.00;94910.88;5071761;28;20530;-64
2022/12/20 07:01:30;;;;;;;1999.90;999.90;;;;;;;2.87;100.00;94903.22;5071859;28;20227;-64
2022/12/20 07:03:55;;;;;;;1999.90;999.90;;;;;;;2.89;100.00;94903.63;5055345;28;20202;-68
2022/12/20 07:06:21;;;;;;;1999.90;999.90;;;;;;;2.91;100.00;94904.03;5071938;28;20248;-62
2022/12/20 07:08:46;;;;;;;1999.90;999.90;;;;;;;2.91;100.00;94895.16;5071508;28;20170;-65
2022/12/20 07:11:11;;;;;;;1999.90;999.90;;;;;;;2.91;100.00;94895.94;5071973;28;20185;-66
2022/12/20 07:13:37;;;;;;;1999.90;999.90;;;;;;;2.99;100.00;94905.66;5054752;28;20555;-67
2022/12/20 07:16:03;;;;;;;1999.90;999.90;;;;;;;3.05;100.00;94906.13;5071193;28;20182;-65
2022/12/20 07:18:29;;;;;;;1999.90;999.90;;;;;;;3.08;100.00;94918.88;5071227;28;20239;-67
2022/12/20 07:20:59;;;;;;;1999.90;999.90;;;;;;;3.10;100.00;94914.66;5054494;28;20324;-64
2022/12/20 07:23:24;;;;;;;1999.90;999.90;;;;;;;3.07;100.00;94925.41;5055809;28;20196;-63
2022/12/20 07:25:58;;;;;;;1999.90;999.90;;;;;;;3.07;100.00;94934.28;5054108;28;20178;-67
2022/12/20 07:28:24;;;;;;;1999.90;999.90;;;;;;;3.10;100.00;94946.28;5071289;28;20213;-67
2022/12/20 07:30:50;;;;;;;1999.90;999.90;;;;;;;3.14;100.00;94947.84;5071279;28;20189;-67
2022/12/20 07:33:16;;;;;;;1999.90;999.90;;;;;;;3.16;100.00;94956.38;5071291;28;20181;-67
2022/12/20 07:35:42;;;;;;;1999.90;999.90;;;;;;;3.21;100.00;94968.75;5053792;28;20170;-67
2022/12/20 07:38:08;;;;;;;1999.90;999.90;;;;;;;3.22;100.00;94987.28;5070905;28;20181;-67
2022/12/20 07:40:33;;;;;;;1999.90;999.90;;;;;;;3.24;100.00;95001.16;5053959;28;20232;-65
2022/12/20 07:42:58;;;;;;;1999.90;999.90;;;;;;;3.28;100.00;95018.16;5070926;28;20189;-66
2022/12/20 07:45:24;;;;;;;1999.90;999.90;;;;;;;3.29;100.00;95038.59;5070558;28;20177;-65
2022/12/20 07:47:49;;;;;;;1999.90;999.90;;;;;;;3.38;100.00;95049.91;5070580;28;20663;-66
2022/12/20 07:50:15;;;;;;;1999.90;999.90;;;;;;;3.44;100.00;95059.25;5070694;28;20177;-66
2022/12/20 07:52:43;;;;;;;1999.90;999.90;;;;;;;3.48;100.00;95086.28;5054009;28;20249;-65
2022/12/20 07:55:10;;;;;;;1999.90;999.90;;;;;;;3.56;100.00;95089.84;5070441;28;20181;-66
2022/12/20 07:57:49;;;;;;;1999.90;999.90;;;;;;;3.61;100.00;95108.41;5070315;28;20177;-67
2022/12/20 08:00:17;;;;;;;1999.90;999.90;;;;;;;3.68;100.00;95108.50;5054348;28;20178;-63
2022/12/20 08:03:00;;;;;;;1999.90;999.90;;;;;;;3.78;100.00;95121.38;5053590;28;20205;-66
2022/12/20 08:05:26;;;;;;;1999.90;999.90;;;;;;;3.87;100.00;95136.16;5054238;28;20194;-67
2022/12/20 08:07:55;;;;;;;1999.90;999.90;;;;;;;3.94;100.00;95157.84;5070530;28;20212;-68
2022/12/20 08:10:21;;;;;;;1999.90;999.90;;;;;;;4.00;100.00;95171.81;5070413;28;20178;-67
2022/12/20 08:12:47;;;;;;;1999.90;999.90;;;;;;;4.08;100.00;95179.63;5070635;28;20197;-68
2022/12/20 08:15:13;;;;;;;1999.90;999.90;;;;;;;4.13;100.00;95192.81;5070809;28;20183;-66
2022/12/20 08:17:38;;;;;;;1999.90;999.90;;;;;;;4.22;100.00;95212.22;5053411;28;20246;-64
2022/12/20 08:20:05;;;;;;;1999.90;999.90;;;;;;;4.32;100.00;95227.03;5053459;28;20236;-63
2022/12/20 08:22:31;;;;;;;1999.90;999.90;;;;;;;4.39;100.00;95238.72;5053944;28;20220;-63
2022/12/20 08:24:56;;;;;;;1999.90;999.90;;;;;;;4.47;100.00;95247.66;5069805;28;20177;-63
2022/12/20 08:27:21;;;;;;;1999.90;999.90;;;;;;;4.53;100.00;95259.72;5053572;28;20218;-64
2022/12/20 08:29:47;;;;;;;1999.90;999.90;;;;;;;4.59;100.00;95279.91;5069907;28;20201;-64
2022/12/20 08:32:13;;;;;;;1999.90;999.90;;;;;;;4.61;100.00;95304.63;5052564;28;20241;-64
2022/12/20 08:34:38;;;;;;;1999.90;999.90;;;;;;;4.66;100.00;95312.44;5070639;28;20181;-65
2022/12/20 08:37:04;;;;;;;1999.90;999.90;;;;;;;4.62;100.00;95322.44;5053640;28;20181;-66
2022/12/20 08:39:29;;;;;;;1999.90;999.90;;;;;;;4.56;100.00;95350.91;5053234;28;20170;-67
2022/12/20 08:41:54;;;;;;;1999.90;999.90;;;;;;;4.55;100.00;95365.59;5069806;28;20177;-66
2022/12/20 08:44:20;;;;;;;1999.90;999.90;;;;;;;4.59;100.00;95378.00;5053383;28;20181;-67
2022/12/20 08:46:45;;;;;;;1999.90;999.90;;;;;;;4.65;100.00;95389.28;5053223;28;20196;-66
2022/12/20 08:49:10;;;;;;;1999.90;999.90;;;;;;;4.74;100.00;95397.91;5069938;28;20176;-66
2022/12/20 08:51:36;;;;;;;1999.90;999.90;;;;;;;4.78;100.00;95423.09;5053373;28;20325;-67
2022/12/20 08:54:01;;;;;;;1999.90;999.90;;;;;;;4.84;100.00;95424.34;5053000;28;20259;-65
2022/12/20 08:56:27;;;;;;;1999.90;999.90;;;;;;;4.88;100.00;95430.56;5069968;28;20198;-64
2022/12/20 08:58:53;;;;;;;1999.90;999.90;;;;;;;4.92;100.00;95439.50;5069729;28;20179;-64
2022/12/20 09:01:20;;;;;;;1999.90;999.90;;;;;;;4.94;100.00;95443.41;5053237;28;20208;-64
2022/12/20 09:03:47;;;;;;;1999.90;999.90;;;;;;;4.94;100.00;95448.03;5052573;28;20206;-65
2022/12/20 09:06:18;;;;;;;1999.90;999.90;;;;;;;5.03;100.00;95440.44;5053727;28;20578;-64
2022/12/20 09:08:44;;;;;;;1999.90;999.90;;;;;;;5.11;100.00;95448.28;5053085;28;20189;-64
2022/12/20 09:11:18;;;;;;;1999.90;999.90;;;;;;;5.18;100.00;95451.09;5069686;28;20184;-64
2022/12/20 09:13:46;;;;;;;1999.90;999.90;;;;;;;5.26;100.00;95460.84;5053717;28;20184;-63
2022/12/20 09:16:14;;;;;;;1999.90;999.90;;;;;;;5.24;100.00;95462.38;5069533;28;20202;-64
2022/12/20 09:18:39;;;;;;;1999.90;999.90;;;;;;;5.30;100.00;95469.00;5052762;28;20174;-66
2022/12/20 09:21:06;;;;;;;1999.90;999.90;;;;;;;5.33;100.00;95484.53;5069335;28;20195;-65
2022/12/20 09:23:33;;;;;;;1999.90;999.90;;;;;;;5.44;100.00;95488.94;5053013;28;20203;-64
2022/12/20 09:26:04;;;;;;;1999.90;999.90;;;;;;;5.61;100.00;95495.72;5069833;28;20631;-64
2022/12/20 09:28:30;;;;;;;1999.90;999.90;;;;;;;5.65;100.00;95501.97;5052560;28;20263;-64
2022/12/20 09:31:01;;;;;;;1999.90;999.90;;;;;;;5.75;100.00;95506.72;5069974;28;20238;-68
2022/12/20 09:33:27;;;;;;;1999.90;999.90;;;;;;;5.73;100.00;95522.56;5052896;28;20175;-64
2022/12/20 09:35:53;;;;;;;1999.90;999.90;;;;;;;5.88;100.00;95529.75;5054023;28;20181;-64
2022/12/20 09:38:18;;;;;;;1999.90;999.90;;;;;;;5.93;100.00;95538.31;5052780;28;20326;-66
2022/12/20 09:40:49;;;;;;;1999.90;999.90;;;;;;;6.03;100.00;95550.44;5069890;28;20185;-64
2022/12/20 09:43:16;;;;;;;1999.90;999.90;;;;;;;6.14;100.00;95556.75;5070643;28;20172;-63
2022/12/20 09:45:43;;;;;;;1999.90;999.90;;;;;;;6.11;100.00;95554.78;5056390;28;20549;-64
2022/12/20 09:48:16;;;;;;;1999.90;999.90;;;;;;;6.10;100.00;95564.84;5073471;28;20214;-66
2022/12/20 09:51:06;;;;;;;1999.90;999.90;;;;;;;6.17;100.00;95566.84;5056885;28;20266;-63
2022/12/20 09:54:12;;;;;;;1999.90;999.90;;;;;;;6.21;100.00;95559.53;5072636;28;20228;-63
2022/12/20 09:57:09;;;;;;;1999.90;999.90;;;;;;;6.25;100.00;95563.06;5021491;28;20188;-63
2022/12/20 09:59:39;;;;;;;1999.90;999.90;;;;;;;6.31;100.00;95572.44;5038654;28;20191;-63
2022/12/20 10:02:10;;;;;;;1999.90;999.90;;;;;;;6.30;100.00;95584.41;5072499;28;20176;-63
2022/12/20 10:04:36;;;;;;;1999.90;999.90;;;;;;;6.41;100.00;95577.22;5073230;28;20197;-61
2022/12/20 10:07:19;;;;;;;1999.90;999.90;;;;;;;6.26;100.00;95580.88;5072485;28;20205;-64
2022/12/20 10:09:48;;;;;;;1999.90;999.90;;;;;;;6.46;100.00;95579.56;5073236;28;20275;-61
2022/12/20 10:12:21;;;;;;;1999.90;999.90;;;;;;;6.46;100.00;95576.84;5073056;28;20238;-62
2022/12/20 10:15:06;;;;;;;1999.90;999.90;;;;;;;6.67;100.00;95588.69;5072750;28;20176;-60
2022/12/20 10:17:31;;;;;;;1999.90;999.90;;;;;;;6.92;100.00;95582.72;5072093;28;20179;-61
2022/12/20 10:20:02;;;;;;;1999.90;999.90;;;;;;;7.05;100.00;95590.19;5072929;28;20180;-61
2022/12/20 10:22:45;;;;;;;1999.90;999.90;;;;;;;7.26;100.00;95598.53;5072793;28;20536;-61
2022/12/20 10:25:21;;;;;;;1999.90;999.90;;;;;;;7.39;100.00;95601.72;5072227;28;20235;-65
2022/12/20 10:27:50;;;;;;;1999.90;999.90;;;;;;;7.42;100.00;95601.75;5055684;28;20257;-66
2022/12/20 10:30:19;;;;;;;1999.90;999.90;;;;;;;7.57;100.00;95603.38;5055446;28;20184;-63
2022/12/20 10:32:48;;;;;;;1999.90;999.90;;;;;;;7.69;100.00;95600.38;5072090;28;20193;-63
2022/12/20 10:35:13;;;;;;;1999.90;999.90;;;;;;;7.73;100.00;95614.78;5056052;28;20327;-63
2022/12/20 10:37:55;;;;;;;1999.90;999.90;;;;;;;7.71;100.00;95619.78;5072051;28;20596;-62
2022/12/20 10:40:31;;;;;;;1999.90;999.90;;;;;;;7.72;100.00;95613.19;5055457;28;20174;-62
2022/12/20 10:42:57;;;;;;;1999.90;999.90;;;;;;;7.65;100.00;95612.38;5055799;28;20169;-62
2022/12/20 10:45:22;;;;;;;1999.90;999.90;;;;;;;7.69;100.00;95603.09;5071983;28;20178;-65
2022/12/20 10:47:50;;;;;;;1999.90;999.90;;;;;;;7.69;100.00;95600.38;5072249;28;20206;-64
2022/12/20 10:50:22;;;;;;;1999.90;999.90;;;;;;;7.71;100.00;95595.31;5072287;28;20239;-62
2022/12/20 10:53:19;;;;;;;1999.90;999.90;;;;;;;7.66;100.00;95576.69;5071264;28;20217;-63
2022/12/20 10:55:45;;;;;;;1999.90;999.90;;;;;;;7.67;100.00;95572.00;5071729;28;20182;-63
2022/12/20 10:58:29;;;;;;;1999.90;999.90;;;;;;;7.70;100.00;95566.59;5055583;28;20185;-63
2022/12/20 11:01:17;;;;;;;1999.90;999.90;;;;;;;7.74;100.00;95559.25;5055436;28;20227;-62
2022/12/20 11:03:49;;;;;;;1999.90;999.90;;;;;;;7.84;100.00;95558.53;5071123;28;20202;-64
2022/12/20 11:06:16;;;;;;;1999.90;999.90;;;;;;;7.94;100.00;95554.28;5071530;28;20224;-65
2022/12/20 11:08:42;;;;;;;1999.90;999.90;;;;;;;7.98;100.00;95544.97;5054735;28;20219;-65